Time;durP1;ratioP1;P1;durP2;ratioP2;P2;SDS_P1;SDS_P2;PMS_P1;PMS_P2;Temp;Humidity;BMP_temperature;BMP_pressure;BME280_temperature;BME280_humidity;BME280_pressure;Samples;Min_cycle;Max_cycle;Signal;HPM_P1;HPM_P2
2022/07/08 00:00:13;0.00;0.00;0.62;0.00;0.00;0.62;9.57;3.00;;;23.50;32.30;;;;;;2262743;61;20481;-55
2022/07/08 00:02:57;0.00;0.00;0.62;0.00;0.00;0.62;6.43;2.50;;;23.50;32.40;;;;;;2263328;61;20364;-51
2022/07/08 00:05:44;0.00;0.00;0.62;0.00;0.00;0.62;6.70;2.50;;;23.40;32.30;;;;;;2263732;61;20407;-53
2022/07/08 00:08:30;0.00;0.00;0.62;0.00;0.00;0.62;6.10;2.40;;;23.40;32.40;;;;;;2263169;61;20363;-54
2022/07/08 00:11:15;0.00;0.00;0.62;0.00;0.00;0.62;7.40;3.00;;;23.40;32.40;;;;;;2264042;61;20438;-51
2022/07/08 00:14:00;0.00;0.00;0.62;0.00;0.00;0.62;6.60;2.30;;;23.40;32.40;;;;;;2262874;61;20425;-55
2022/07/08 00:16:45;0.00;0.00;0.62;0.00;0.00;0.62;9.30;2.40;;;23.40;32.40;;;;;;2263536;61;20456;-52
2022/07/08 00:19:30;0.00;0.00;0.62;0.00;0.00;0.62;5.37;2.27;;;23.40;32.50;;;;;;2263878;61;20464;-52
2022/07/08 00:22:16;0.00;0.00;0.62;0.00;0.00;0.62;5.57;2.10;;;23.40;32.40;;;;;;2263121;61;20368;-52
2022/07/08 00:25:01;0.00;0.00;0.62;0.00;0.00;0.62;5.00;2.50;;;23.50;32.50;;;;;;2263096;61;20446;-51
2022/07/08 00:27:46;0.00;0.00;0.62;0.00;0.00;0.62;3.50;1.90;;;23.40;32.30;;;;;;2264023;61;20364;-51
2022/07/08 00:30:32;0.00;0.00;0.62;0.00;0.00;0.62;7.60;2.30;;;23.50;32.30;;;;;;2259888;61;20426;-52
2022/07/08 00:33:17;0.00;0.00;0.62;0.00;0.00;0.62;5.07;2.70;;;23.50;32.20;;;;;;2260849;61;20360;-51
2022/07/08 00:36:01;0.00;0.00;0.62;0.00;0.00;0.62;4.30;2.37;;;23.50;32.20;;;;;;2263315;61;20364;-53
2022/07/08 00:38:48;0.00;0.00;0.62;0.00;0.00;0.62;7.77;2.57;;;23.50;32.10;;;;;;2260040;61;20363;-52
2022/07/08 00:41:33;0.00;0.00;0.62;0.00;0.00;0.62;7.17;2.03;;;23.50;32.10;;;;;;2263868;61;20388;-55
2022/07/08 00:44:18;0.00;0.00;0.62;0.00;0.00;0.62;3.47;1.60;;;23.50;32.00;;;;;;2262773;61;20359;-53
2022/07/08 00:47:03;0.00;0.00;0.62;0.00;0.00;0.62;4.70;2.20;;;23.50;31.90;;;;;;2263659;61;20506;-53
2022/07/08 00:49:49;0.00;0.00;0.62;0.00;0.00;0.62;5.80;2.30;;;23.50;32.60;;;;;;2261154;61;20439;-53
2022/07/08 00:52:35;0.00;0.00;0.62;0.00;0.00;0.62;9.10;2.17;;;23.60;31.90;;;;;;2263179;61;20356;-51
2022/07/08 00:55:22;0.00;0.00;0.62;0.00;0.00;0.62;4.50;1.80;;;23.50;31.70;;;;;;2263753;61;20409;-53
2022/07/08 00:58:07;0.00;0.00;0.62;0.00;0.00;0.62;6.17;2.20;;;23.50;31.70;;;;;;2263590;61;20443;-54
2022/07/08 01:00:53;0.00;0.00;0.62;0.00;0.00;0.62;4.73;1.80;;;23.50;31.70;;;;;;2263973;61;20774;-52
2022/07/08 01:03:39;0.00;0.00;0.62;0.00;0.00;0.62;4.50;2.23;;;23.50;31.70;;;;;;2263841;61;20368;-51
2022/07/08 01:06:24;0.00;0.00;0.62;0.00;0.00;0.62;7.40;2.50;;;23.50;31.70;;;;;;2262963;61;20883;-51
2022/07/08 01:09:10;0.00;0.00;0.62;0.00;0.00;0.62;5.30;2.07;;;23.50;31.70;;;;;;2263221;61;20470;-50
2022/07/08 01:11:56;0.00;0.00;0.62;0.00;0.00;0.62;3.90;2.00;;;23.50;31.70;;;;;;2264318;61;20916;-51
2022/07/08 01:14:41;0.00;0.00;0.62;0.00;0.00;0.62;5.73;1.90;;;23.50;31.70;;;;;;2263083;61;20969;-50
2022/07/08 01:17:27;0.00;0.00;0.62;0.00;0.00;0.62;4.60;2.00;;;23.40;31.60;;;;;;2260203;61;20468;-49
2022/07/08 01:20:13;0.00;0.00;0.62;0.00;0.00;0.62;5.93;1.83;;;23.50;31.70;;;;;;2263464;61;20380;-51
2022/07/08 01:23:00;0.00;0.00;0.62;0.00;0.00;0.62;5.23;2.10;;;23.40;31.60;;;;;;2263093;61;20421;-51
2022/07/08 01:25:46;0.00;0.00;0.62;0.00;0.00;0.62;6.87;2.57;;;23.40;31.60;;;;;;2263683;61;20364;-49
2022/07/08 01:28:31;0.00;0.00;0.62;0.00;0.00;0.62;7.27;2.30;;;23.40;31.60;;;;;;2262940;61;20923;-52
2022/07/08 01:31:16;0.00;0.00;0.62;0.00;0.00;0.62;4.60;2.20;;;23.40;31.50;;;;;;2263323;61;20387;-52
2022/07/08 01:34:01;0.00;0.00;0.62;0.00;0.00;0.62;7.77;2.43;;;23.40;31.50;;;;;;2263604;61;20375;-50
2022/07/08 01:36:46;0.00;0.00;0.62;0.00;0.00;0.62;4.50;2.10;;;23.40;31.50;;;;;;2262659;61;20527;-53
2022/07/08 01:39:33;0.00;0.00;0.62;0.00;0.00;0.62;4.27;1.97;;;23.40;31.50;;;;;;2263225;61;20372;-52
2022/07/08 01:42:17;0.00;0.00;0.62;0.00;0.00;0.62;5.50;2.40;;;23.40;31.60;;;;;;2264276;61;20372;-51
2022/07/08 01:45:03;0.00;0.00;0.62;0.00;0.00;0.62;5.00;2.20;;;23.40;31.60;;;;;;2263235;61;20364;-54
2022/07/08 01:47:48;0.00;0.00;0.62;0.00;0.00;0.62;5.43;2.20;;;23.30;31.50;;;;;;2264540;61;20515;-52
2022/07/08 01:50:33;0.00;0.00;0.62;0.00;0.00;0.62;6.70;2.13;;;23.30;31.50;;;;;;2263436;61;20418;-54
2022/07/08 01:53:18;0.00;0.00;0.62;0.00;0.00;0.62;6.23;2.70;;;23.30;31.50;;;;;;2263821;61;20359;-51
2022/07/08 01:56:05;0.00;0.00;0.62;0.00;0.00;0.62;5.50;1.60;;;23.30;31.60;;;;;;2264649;61;20367;-51
2022/07/08 01:58:50;0.00;0.00;0.62;0.00;0.00;0.62;4.70;2.40;;;23.30;31.70;;;;;;2263118;61;20367;-53
2022/07/08 02:01:34;0.00;0.00;0.62;0.00;0.00;0.62;7.90;2.30;;;23.30;31.70;;;;;;2264064;61;20380;-51
2022/07/08 02:04:19;0.00;0.00;0.62;0.00;0.00;0.62;5.70;1.93;;;23.20;31.70;;;;;;2264237;61;20771;-57
2022/07/08 02:07:04;0.00;0.00;0.62;0.00;0.00;0.62;5.17;1.60;;;23.20;31.70;;;;;;2263399;61;20440;-55
2022/07/08 02:09:49;0.00;0.00;0.62;0.00;0.00;0.62;4.40;1.87;;;23.20;31.70;;;;;;2264474;61;20360;-51
2022/07/08 02:12:35;0.00;0.00;0.62;0.00;0.00;0.62;4.33;1.73;;;23.10;31.70;;;;;;2263360;61;20410;-55
2022/07/08 02:15:20;0.00;0.00;0.62;0.00;0.00;0.62;6.90;2.20;;;23.10;31.80;;;;;;2263609;61;20781;-51
2022/07/08 02:18:05;0.00;0.00;0.62;0.00;0.00;0.62;5.57;2.10;;;23.10;31.90;;;;;;2264343;61;20828;-51
2022/07/08 02:20:51;0.00;0.00;0.62;0.00;0.00;0.62;9.53;2.50;;;23.10;32.10;;;;;;2263352;61;20399;-52
2022/07/08 02:23:35;0.00;0.00;0.62;0.00;0.00;0.62;5.10;2.30;;;23.10;32.30;;;;;;2263825;61;20386;-50
2022/07/08 02:26:20;0.00;0.00;0.62;0.00;0.00;0.62;7.80;2.27;;;23.00;32.10;;;;;;2264303;61;20378;-55
2022/07/08 02:29:06;0.00;0.00;0.62;0.00;0.00;0.62;6.13;2.50;;;23.00;32.20;;;;;;2263419;61;20368;-52
2022/07/08 02:31:51;0.00;0.00;0.62;0.00;0.00;0.62;7.33;2.73;;;23.00;32.30;;;;;;2264360;61;20530;-54
2022/07/08 02:34:36;0.00;0.00;0.62;0.00;0.00;0.62;5.43;2.63;;;22.90;32.20;;;;;;2263158;61;20863;-56
2022/07/08 02:37:21;0.00;0.00;0.62;0.00;0.00;0.62;4.80;2.30;;;22.90;32.20;;;;;;2263761;61;20396;-51
2022/07/08 02:40:07;0.00;0.00;0.62;0.00;0.00;0.62;6.90;2.23;;;22.90;32.30;;;;;;2264213;61;20379;-53
2022/07/08 02:42:52;0.00;0.00;0.62;0.00;0.00;0.62;6.33;2.50;;;22.90;32.30;;;;;;2263167;61;20363;-54
2022/07/08 02:45:38;0.00;0.00;0.62;0.00;0.00;0.62;5.97;2.40;;;22.90;32.40;;;;;;2263782;61;20360;-51
2022/07/08 02:48:23;0.00;0.00;0.62;0.00;0.00;0.62;7.27;1.77;;;22.80;32.30;;;;;;2264358;61;20368;-52
2022/07/08 02:51:08;0.00;0.00;0.62;0.00;0.00;0.62;7.57;2.77;;;22.80;32.40;;;;;;2263370;61;20396;-54
2022/07/08 02:53:54;0.00;0.00;0.62;0.00;0.00;0.62;6.43;2.27;;;22.80;32.40;;;;;;2263804;61;20364;-54
2022/07/08 02:56:38;0.00;0.00;0.62;0.00;0.00;0.62;6.40;1.97;;;22.80;32.50;;;;;;2263626;61;20905;-52
2022/07/08 02:59:24;0.00;0.00;0.62;0.00;0.00;0.62;3.93;1.73;;;22.70;32.50;;;;;;2263486;61;20773;-52
2022/07/08 03:02:10;0.00;0.00;0.62;0.00;0.00;0.62;4.47;1.70;;;22.70;32.50;;;;;;2264383;61;20404;-53
2022/07/08 03:04:55;0.00;0.00;0.62;0.00;0.00;0.62;5.63;2.50;;;22.70;32.60;;;;;;2262990;61;20368;-52
2022/07/08 03:07:40;0.00;0.00;0.62;0.00;0.00;0.62;5.50;2.10;;;22.60;32.60;;;;;;2263784;61;20403;-56
2022/07/08 03:10:25;0.00;0.00;0.62;0.00;0.00;0.62;4.23;2.00;;;22.60;32.70;;;;;;2264211;61;20430;-52
2022/07/08 03:13:09;0.00;0.00;0.62;0.00;0.00;0.62;4.33;2.10;;;22.60;32.70;;;;;;2263432;61;20827;-53
2022/07/08 03:15:54;0.00;0.00;0.62;0.00;0.00;0.62;6.60;2.47;;;22.50;32.70;;;;;;2264306;61;20402;-56
2022/07/08 03:18:41;0.00;0.00;0.62;0.00;0.00;0.62;5.30;2.63;;;22.50;32.70;;;;;;2264894;61;20402;-51
2022/07/08 03:21:26;0.00;0.00;0.62;0.00;0.00;0.62;6.60;2.50;;;22.50;32.80;;;;;;2264561;61;20518;-50
2022/07/08 03:24:10;0.00;0.00;0.62;0.00;0.00;0.62;4.60;1.87;;;22.50;32.80;;;;;;2264461;61;20493;-56
2022/07/08 03:26:55;0.00;0.00;0.62;0.00;0.00;0.62;13.10;2.77;;;22.40;32.90;;;;;;2264193;61;20340;-51
2022/07/08 03:29:40;0.00;0.00;0.62;0.00;0.00;0.62;6.03;2.20;;;22.40;33.50;;;;;;2264166;61;20453;-50
2022/07/08 03:32:26;0.00;0.00;0.62;0.00;0.00;0.62;7.50;2.33;;;22.40;32.90;;;;;;2264822;61;20884;-51
2022/07/08 03:35:12;0.00;0.00;0.62;0.00;0.00;0.62;5.33;1.70;;;22.40;32.90;;;;;;2263457;61;20431;-51
2022/07/08 03:37:57;0.00;0.00;0.62;0.00;0.00;0.62;4.97;2.20;;;22.30;32.90;;;;;;2263681;61;20434;-52
2022/07/08 03:43:45;0.00;0.00;0.62;0.00;0.00;0.62;6.90;2.10;;;22.30;33.10;;;;;;2260072;61;20364;-53
2022/07/08 03:46:30;0.00;0.00;0.62;0.00;0.00;0.62;4.90;2.10;;;22.30;33.20;;;;;;2264233;61;20387;-50
2022/07/08 03:49:15;0.00;0.00;0.62;0.00;0.00;0.62;4.03;1.57;;;22.20;33.20;;;;;;2263179;61;20984;-53
2022/07/08 03:52:02;0.00;0.00;0.62;0.00;0.00;0.62;4.10;2.03;;;22.20;33.20;;;;;;2263525;61;20419;-52
2022/07/08 03:54:46;0.00;0.00;0.62;0.00;0.00;0.62;3.60;1.40;;;22.30;33.30;;;;;;2263877;61;20518;-49
2022/07/08 03:57:31;0.00;0.00;0.62;0.00;0.00;0.62;4.50;2.10;;;22.30;33.30;;;;;;2263060;61;20426;-52
2022/07/08 04:00:16;0.00;0.00;0.62;0.00;0.00;0.62;5.63;2.10;;;22.30;33.30;;;;;;2263586;61;20947;-52
2022/07/08 04:03:01;0.00;0.00;0.62;0.00;0.00;0.62;7.20;2.10;;;22.30;33.30;;;;;;2263979;61;20364;-51
2022/07/08 04:05:46;0.00;0.00;0.62;0.00;0.00;0.62;4.13;1.70;;;22.20;33.20;;;;;;2263012;61;20360;-50
2022/07/08 04:08:32;0.00;0.00;0.62;0.00;0.00;0.62;5.00;1.83;;;22.20;33.20;;;;;;2264178;61;20730;-51
2022/07/08 04:11:17;0.00;0.00;0.62;0.00;0.00;0.62;4.23;1.63;;;22.20;33.20;;;;;;2259738;61;20453;-49
2022/07/08 04:14:02;0.00;0.00;0.62;0.00;0.00;0.62;6.40;1.73;;;22.20;33.30;;;;;;2263394;61;20430;-53
2022/07/08 04:16:46;0.00;0.00;0.62;0.00;0.00;0.62;4.50;1.83;;;22.20;33.30;;;;;;2264031;61;20481;-52
2022/07/08 04:19:31;0.00;0.00;0.62;0.00;0.00;0.62;7.17;2.30;;;22.20;33.30;;;;;;2262945;61;20365;-52
2022/07/08 04:22:16;0.00;0.00;0.62;0.00;0.00;0.62;7.40;2.47;;;22.20;33.30;;;;;;2263576;61;20780;-51
2022/07/08 04:25:02;0.00;0.00;0.62;0.00;0.00;0.62;6.67;2.37;;;22.20;33.30;;;;;;2263693;61;20368;-55
2022/07/08 04:27:47;0.00;0.00;0.62;0.00;0.00;0.62;6.70;2.40;;;22.20;33.30;;;;;;2263330;61;20774;-54
2022/07/08 04:30:32;0.00;0.00;0.62;0.00;0.00;0.62;6.27;1.70;;;22.20;33.40;;;;;;2264325;61;20480;-51
2022/07/08 04:33:17;0.00;0.00;0.62;0.00;0.00;0.62;5.93;1.83;;;22.20;33.40;;;;;;2262639;61;20417;-51
2022/07/08 04:36:02;0.00;0.00;0.62;0.00;0.00;0.62;5.53;2.27;;;22.20;33.50;;;;;;2263497;61;20372;-50
2022/07/08 04:38:47;0.00;0.00;0.62;0.00;0.00;0.62;4.63;1.80;;;22.20;33.50;;;;;;2263848;61;20352;-52
2022/07/08 04:41:33;0.00;0.00;0.62;0.00;0.00;0.62;4.60;1.83;;;22.20;33.50;;;;;;2262927;61;20472;-55
2022/07/08 04:44:18;0.00;0.00;0.62;0.00;0.00;0.62;5.30;1.90;;;22.20;33.60;;;;;;2263182;61;21261;-54
2022/07/08 04:47:04;0.00;0.00;0.62;0.00;0.00;0.62;5.57;2.33;;;22.20;33.60;;;;;;2264225;61;20414;-53
2022/07/08 04:49:49;0.00;0.00;0.62;0.00;0.00;0.62;5.80;2.20;;;22.20;33.60;;;;;;2263241;61;20887;-55
2022/07/08 04:52:34;0.00;0.00;0.62;0.00;0.00;0.62;5.97;3.13;;;22.20;33.60;;;;;;2264345;61;20411;-52
2022/07/08 04:55:28;0.00;0.00;0.62;0.00;0.00;0.62;6.47;2.13;;;22.20;33.70;;;;;;2263195;61;20761;-54
2022/07/08 04:58:15;0.00;0.00;0.62;0.00;0.00;0.62;3.37;1.80;;;22.20;33.80;;;;;;2263926;61;20384;-52
2022/07/08 05:01:00;0.00;0.00;0.62;0.00;0.00;0.62;5.00;1.90;;;22.20;34.00;;;;;;2263972;61;20504;-54
2022/07/08 05:03:44;0.00;0.00;0.62;0.00;0.00;0.62;4.97;1.87;;;22.10;33.90;;;;;;2262835;61;20364;-52
2022/07/08 05:06:29;0.00;0.00;0.62;0.00;0.00;0.62;6.17;2.00;;;22.20;34.00;;;;;;2263281;61;20502;-54
2022/07/08 05:09:14;0.00;0.00;0.62;0.00;0.00;0.62;7.77;2.00;;;22.20;34.00;;;;;;2263792;61;20367;-53
2022/07/08 05:12:00;0.00;0.00;0.62;0.00;0.00;0.62;3.80;1.70;;;22.10;33.80;;;;;;2262674;61;20388;-58
2022/07/08 05:14:46;0.00;0.00;0.62;0.00;0.00;0.62;5.87;2.07;;;22.10;33.90;;;;;;2263601;61;20490;-54
2022/07/08 05:17:31;0.00;0.00;0.62;0.00;0.00;0.62;4.10;1.53;;;22.20;34.60;;;;;;2262757;61;20855;-49
2022/07/08 05:20:16;0.00;0.00;0.62;0.00;0.00;0.62;4.77;1.77;;;22.10;33.80;;;;;;2263231;61;20472;-53
2022/07/08 05:23:01;0.00;0.00;0.62;0.00;0.00;0.62;4.27;1.63;;;22.20;33.90;;;;;;2263849;61;20414;-55
2022/07/08 05:25:45;0.00;0.00;0.62;0.00;0.00;0.62;4.50;2.20;;;22.20;33.90;;;;;;2259539;61;20363;-53
2022/07/08 05:28:30;0.00;0.00;0.62;0.00;0.00;0.62;3.97;1.77;;;22.20;33.80;;;;;;2263022;61;20360;-51
2022/07/08 05:31:16;0.00;0.00;0.62;0.00;0.00;0.62;3.20;1.60;;;22.20;33.80;;;;;;2264026;61;20387;-56
2022/07/08 05:34:01;0.00;0.00;0.62;0.00;0.00;0.62;2.13;1.40;;;22.20;33.80;;;;;;2262954;61;20367;-55
2022/07/08 05:36:46;0.00;0.00;0.62;0.00;0.00;0.62;6.43;1.83;;;22.20;33.80;;;;;;2263922;61;20801;-53
2022/07/08 05:39:30;0.00;0.00;0.62;0.00;0.00;0.62;5.10;1.70;;;22.20;33.90;;;;;;2262987;61;20761;-56
2022/07/08 05:42:15;0.00;0.00;0.62;0.00;0.00;0.62;3.90;1.60;;;22.20;33.90;;;;;;2259979;61;20367;-51
2022/07/08 05:45:00;0.00;0.00;0.62;0.00;0.00;0.62;4.20;1.77;;;22.20;33.90;;;;;;2263395;61;20361;-53
2022/07/08 05:47:46;0.00;0.00;0.62;0.00;0.00;0.62;7.83;2.40;;;22.30;33.90;;;;;;2262916;61;20356;-52
2022/07/08 05:50:31;0.00;0.00;0.62;0.00;0.00;0.62;4.60;2.00;;;22.30;33.90;;;;;;2263243;61;20400;-55
2022/07/08 05:53:16;0.00;0.00;0.62;0.00;0.00;0.62;4.30;2.03;;;22.30;33.90;;;;;;2263895;61;20820;-55
2022/07/08 05:56:01;0.00;0.00;0.62;0.00;0.00;0.62;6.10;2.20;;;22.30;33.90;;;;;;2259705;61;20425;-54
2022/07/08 05:58:46;0.00;0.00;0.62;0.00;0.00;0.62;4.57;2.00;;;22.30;33.90;;;;;;2263484;61;20457;-51
2022/07/08 06:01:31;0.00;0.00;0.62;0.00;0.00;0.62;3.60;1.90;;;22.30;33.80;;;;;;2263237;61;20387;-58
2022/07/08 06:04:18;0.00;0.00;0.62;0.00;0.00;0.62;4.90;1.97;;;22.30;33.80;;;;;;2262867;61;20429;-58
2022/07/08 06:07:04;0.00;0.00;0.62;0.00;0.00;0.62;6.40;1.93;;;22.30;33.80;;;;;;2263232;61;20364;-53
2022/07/08 06:09:48;0.00;0.00;0.62;0.00;0.00;0.62;7.73;1.93;;;22.30;33.90;;;;;;2262991;61;20426;-55
2022/07/08 06:12:34;0.00;0.00;0.62;0.00;0.00;0.62;3.90;1.70;;;22.40;34.00;;;;;;2259687;61;20491;-57
2022/07/08 06:15:19;0.00;0.00;0.62;0.00;0.00;0.62;4.43;1.63;;;22.40;34.00;;;;;;2260539;61;20368;-56
2022/07/08 06:18:04;0.00;0.00;0.62;0.00;0.00;0.62;2.80;1.40;;;22.40;34.10;;;;;;2262513;61;21054;-57
2022/07/08 06:20:50;0.00;0.00;0.62;0.00;0.00;0.62;3.20;1.77;;;22.40;34.10;;;;;;2262562;61;20420;-52
2022/07/08 06:23:35;0.00;0.00;0.62;0.00;0.00;0.62;4.07;1.50;;;22.40;34.10;;;;;;2263374;61;20413;-59
2022/07/08 06:26:19;0.00;0.00;0.62;0.00;0.00;0.62;4.93;1.97;;;22.40;34.10;;;;;;2263143;61;20943;-54
2022/07/08 06:29:04;0.00;0.00;0.62;0.00;0.00;0.62;4.40;1.80;;;22.50;34.10;;;;;;2264195;61;20356;-52
2022/07/08 06:31:49;0.00;0.00;0.62;0.00;0.00;0.62;5.13;1.60;;;22.50;34.10;;;;;;2263911;61;20777;-51
2022/07/08 06:34:34;0.00;0.00;0.62;0.00;0.00;0.62;3.50;1.97;;;22.50;34.10;;;;;;2263516;61;20452;-50
2022/07/08 06:37:20;0.00;0.00;0.62;0.00;0.00;0.62;2.40;1.40;;;22.60;34.20;;;;;;2264411;61;20384;-50
2022/07/08 06:40:06;0.00;0.00;0.62;0.00;0.00;0.62;3.50;1.33;;;22.60;34.20;;;;;;2263687;61;20499;-52
2022/07/08 06:42:51;0.00;0.00;0.62;0.00;0.00;0.62;4.70;1.60;;;22.60;34.20;;;;;;2260716;61;20387;-56
2022/07/08 06:45:37;0.00;0.00;0.62;0.00;0.00;0.62;4.47;1.80;;;22.60;34.80;;;;;;2260944;61;20364;-55
2022/07/08 06:48:21;0.00;0.00;0.62;0.00;0.00;0.62;4.10;1.93;;;22.70;34.10;;;;;;2260659;61;20414;-52
2022/07/08 06:51:06;0.00;0.00;0.62;0.00;0.00;0.62;4.73;2.10;;;22.70;34.00;;;;;;2264248;61;20481;-54
2022/07/08 06:56:56;0.00;0.00;0.62;0.00;0.00;0.62;7.87;1.73;;;22.80;33.90;;;;;;2263865;61;20438;-51
2022/07/08 06:59:43;0.00;0.00;0.62;0.00;0.00;0.62;6.20;1.93;;;22.80;34.50;;;;;;2264344;61;20499;-59
2022/07/08 07:02:28;0.00;0.00;0.62;0.00;0.00;0.62;5.47;1.80;;;22.80;33.70;;;;;;2263323;61;20824;-54
2022/07/08 07:05:13;0.00;0.00;0.62;0.00;0.00;0.62;6.20;1.50;;;22.80;33.70;;;;;;2525903;53;20367;-54
2022/07/08 07:07:58;0.00;0.00;0.62;0.00;0.00;0.62;8.40;1.50;;;22.90;33.80;;;;;;2260227;61;20422;-57
2022/07/08 07:10:44;0.00;0.00;0.62;0.00;0.00;0.62;6.70;1.90;;;22.90;33.70;;;;;;2461709;45;20387;-56
2022/07/08 07:13:53;0.00;0.00;0.62;0.00;0.00;0.62;5.70;1.80;;;22.90;33.50;;;;;;2370085;55;20549;-54
2022/07/08 07:16:38;0.00;0.00;0.62;0.00;0.00;0.62;6.30;2.00;;;22.90;33.50;;;;;;2327765;53;20474;-55
2022/07/08 07:19:24;0.00;0.00;0.62;0.00;0.00;0.62;8.20;2.37;;;23.00;33.50;;;;;;2268830;61;20877;-54
2022/07/08 07:22:09;0.00;0.00;0.62;0.00;0.00;0.62;4.00;2.00;;;23.00;33.40;;;;;;2267636;61;20807;-58
2022/07/08 07:24:55;0.00;0.00;0.62;0.00;0.00;0.62;3.77;1.47;;;23.00;33.50;;;;;;2265040;61;20783;-55
2022/07/08 07:27:42;0.00;0.00;0.62;0.00;0.00;0.62;3.53;1.43;;;23.00;33.40;;;;;;2261613;61;20363;-58
2022/07/08 07:30:28;0.00;0.00;0.62;0.00;0.00;0.62;4.00;1.90;;;23.00;33.40;;;;;;2260711;61;20364;-56
2022/07/08 07:33:13;0.00;0.00;0.62;0.00;0.00;0.62;4.27;1.97;;;23.00;33.30;;;;;;2264718;61;20368;-56
2022/07/08 07:35:59;0.00;0.00;0.62;0.00;0.00;0.62;3.00;1.77;;;23.10;33.30;;;;;;2264404;61;20442;-56
2022/07/08 07:38:44;0.00;0.00;0.62;0.00;0.00;0.62;3.10;1.73;;;23.10;33.30;;;;;;2261506;61;20426;-53
2022/07/08 07:41:30;0.00;0.00;0.62;0.00;0.00;0.62;3.07;1.47;;;23.10;33.30;;;;;;2265317;61;20387;-57
2022/07/08 07:44:17;0.00;0.00;0.62;0.00;0.00;0.62;2.73;1.23;;;23.10;33.30;;;;;;2261657;61;20392;-57
2022/07/08 07:47:04;0.00;0.00;0.62;0.00;0.00;0.62;2.73;1.50;;;23.10;33.20;;;;;;2266171;61;20887;-59
2022/07/08 07:49:50;0.00;0.00;0.62;0.00;0.00;0.62;3.83;1.90;;;23.10;33.10;;;;;;2264735;61;20411;-55
2022/07/08 07:52:36;0.00;0.00;0.62;0.00;0.00;0.62;2.60;1.47;;;23.20;33.10;;;;;;2263063;61;20368;-57
2022/07/08 07:55:22;0.00;0.00;0.62;0.00;0.00;0.62;4.00;1.73;;;23.20;33.10;;;;;;2264498;61;21128;-53
2022/07/08 07:58:08;0.00;0.00;0.62;0.00;0.00;0.62;4.07;1.40;;;23.30;33.00;;;;;;2264174;61;20930;-53
2022/07/08 08:00:55;0.00;0.00;0.62;0.00;0.00;0.62;2.27;1.40;;;23.30;33.00;;;;;;2264737;61;20367;-58
2022/07/08 08:03:41;0.00;0.00;0.62;0.00;0.00;0.62;3.30;1.37;;;23.30;32.90;;;;;;2264669;61;20784;-51
2022/07/08 08:06:28;0.00;0.00;0.62;0.00;0.00;0.62;3.73;1.80;;;23.30;32.90;;;;;;2263763;61;20367;-54
2022/07/08 08:09:14;0.00;0.00;0.62;0.00;0.00;0.62;3.03;1.60;;;23.30;32.80;;;;;;2265053;61;20418;-47
2022/07/08 08:11:59;0.00;0.00;0.62;0.00;0.00;0.62;3.73;1.40;;;23.30;32.60;;;;;;2265039;61;20360;-52
2022/07/08 08:14:44;0.00;0.00;0.62;0.00;0.00;0.62;6.37;2.27;;;23.40;32.70;;;;;;2264453;61;20785;-53
2022/07/08 08:17:35;0.00;0.00;0.62;0.00;0.00;0.62;5.53;1.80;;;23.40;32.60;;;;;;2265476;61;20388;-48
2022/07/08 08:20:27;0.00;0.00;0.62;0.00;0.00;0.62;4.83;1.80;;;23.40;32.60;;;;;;2264912;61;20368;-53
2022/07/08 08:23:13;0.00;0.00;0.62;0.00;0.00;0.62;6.30;1.90;;;23.40;32.40;;;;;;2265215;61;20363;-50
2022/07/08 08:25:59;0.00;0.00;0.62;0.00;0.00;0.62;4.70;2.00;;;23.40;32.30;;;;;;2262097;61;20383;-59
2022/07/08 08:28:44;0.00;0.00;0.62;0.00;0.00;0.62;4.20;1.60;;;23.40;32.20;;;;;;2263901;61;20435;-55
2022/07/08 08:31:29;0.00;0.00;0.62;0.00;0.00;0.62;9.00;2.33;;;23.30;32.10;;;;;;2261314;61;20899;-57
2022/07/08 08:34:17;0.00;0.00;0.62;0.00;0.00;0.62;4.10;1.43;;;23.30;32.10;;;;;;2264451;61;20430;-52
2022/07/08 08:37:03;0.00;0.00;0.62;0.00;0.00;0.62;2.50;1.57;;;23.30;32.20;;;;;;2263770;61;20360;-55
2022/07/08 08:39:48;0.00;0.00;0.62;0.00;0.00;0.62;4.07;1.70;;;23.30;32.30;;;;;;2264613;61;20371;-57
2022/07/08 08:42:34;0.00;0.00;0.62;0.00;0.00;0.62;3.20;1.47;;;23.30;32.40;;;;;;2264106;61;20364;-50
2022/07/08 08:45:19;0.00;0.00;0.62;0.00;0.00;0.62;3.73;1.80;;;23.30;32.40;;;;;;2263548;61;20793;-50
2022/07/08 08:48:07;0.00;0.00;0.62;0.00;0.00;0.62;6.23;2.10;;;23.30;32.20;;;;;;2263825;61;20360;-54
2022/07/08 08:50:55;0.00;0.00;0.62;0.00;0.00;0.62;3.30;1.53;;;23.30;32.20;;;;;;2262517;61;20396;-51
2022/07/08 08:53:45;0.00;0.00;0.62;0.00;0.00;0.62;6.50;1.97;;;23.30;32.30;;;;;;2260257;61;21034;-52
2022/07/08 08:56:30;0.00;0.00;0.62;0.00;0.00;0.62;4.40;2.30;;;23.30;32.30;;;;;;2263993;61;20361;-49
2022/07/08 08:59:17;0.00;0.00;0.62;0.00;0.00;0.62;3.60;2.00;;;23.30;32.20;;;;;;2262889;61;20804;-49
2022/07/08 09:02:02;0.00;0.00;0.62;0.00;0.00;0.62;3.93;1.80;;;23.30;32.00;;;;;;2263930;61;20800;-49
2022/07/08 09:04:48;0.00;0.00;0.62;0.00;0.00;0.62;4.50;1.60;;;23.40;31.80;;;;;;2263238;61;20924;-50
2022/07/08 09:07:34;0.00;0.00;0.62;0.00;0.00;0.62;5.67;1.90;;;23.30;31.80;;;;;;2263795;61;20359;-51
2022/07/08 09:10:20;0.00;0.00;0.62;0.00;0.00;0.62;8.90;1.90;;;23.40;32.00;;;;;;2263945;61;20376;-50
2022/07/08 09:13:08;0.00;0.00;0.62;0.00;0.00;0.62;2.20;1.50;;;23.40;32.00;;;;;;2262708;61;20414;-52
2022/07/08 09:15:54;0.00;0.00;0.62;0.00;0.00;0.62;4.17;1.63;;;23.40;31.90;;;;;;2260392;61;20425;-53
2022/07/08 09:18:39;0.00;0.00;0.62;0.00;0.00;0.62;3.90;1.73;;;23.40;32.00;;;;;;2260671;61;20480;-52
2022/07/08 09:21:28;0.00;0.00;0.62;0.00;0.00;0.62;4.13;1.40;;;23.40;31.90;;;;;;2262516;61;20864;-50
2022/07/08 09:24:19;0.00;0.00;0.62;0.00;0.00;0.62;5.47;1.70;;;23.40;31.90;;;;;;2263660;61;20384;-52
2022/07/08 09:27:06;0.00;0.00;0.62;0.00;0.00;0.62;4.70;1.83;;;23.50;32.00;;;;;;2260175;61;20368;-51
2022/07/08 09:29:59;0.00;0.00;0.62;0.00;0.00;0.62;5.30;1.50;;;23.40;32.00;;;;;;2263816;61;20395;-49
2022/07/08 09:32:59;0.00;0.00;0.62;0.00;0.00;0.62;5.17;2.00;;;23.50;32.10;;;;;;2263743;61;20360;-51
2022/07/08 09:35:50;0.00;0.00;0.62;0.00;0.00;0.62;3.33;1.60;;;23.50;32.10;;;;;;2262405;61;20364;-50
2022/07/08 09:38:37;0.00;0.00;0.62;0.00;0.00;0.62;3.07;1.37;;;23.50;32.20;;;;;;2263733;61;20783;-50
2022/07/08 09:41:24;0.00;0.00;0.62;0.00;0.00;0.62;6.47;2.10;;;23.50;32.90;;;;;;2263363;61;20419;-56
2022/07/08 09:44:15;0.00;0.00;0.62;0.00;0.00;0.62;3.23;1.80;;;23.50;32.30;;;;;;2262820;61;20388;-50
2022/07/08 09:47:00;0.00;0.00;0.62;0.00;0.00;0.62;2.90;1.60;;;23.60;32.40;;;;;;2260700;61;20444;-50
2022/07/08 09:49:47;0.00;0.00;0.62;0.00;0.00;0.62;4.17;2.00;;;23.60;32.30;;;;;;2262271;61;20402;-54
2022/07/08 09:52:31;0.00;0.00;0.62;0.00;0.00;0.62;6.20;2.23;;;23.60;32.20;;;;;;2263898;61;20838;-54
2022/07/08 09:55:19;0.00;0.00;0.62;0.00;0.00;0.62;4.13;1.83;;;23.70;32.10;;;;;;2263465;61;20933;-50
2022/07/08 09:58:05;0.00;0.00;0.62;0.00;0.00;0.62;4.97;1.80;;;23.60;32.10;;;;;;2259305;61;20388;-54
2022/07/08 10:00:52;0.00;0.00;0.62;0.00;0.00;0.62;3.70;1.50;;;23.60;32.00;;;;;;2263742;61;20828;-51
2022/07/08 10:03:37;0.00;0.00;0.62;0.00;0.00;0.62;4.67;1.50;;;23.70;32.20;;;;;;2263656;61;20430;-49
2022/07/08 10:06:22;0.00;0.00;0.62;0.00;0.00;0.62;4.50;1.93;;;23.70;32.30;;;;;;2263808;61;20966;-51
2022/07/08 10:09:07;0.00;0.00;0.62;0.00;0.00;0.62;4.37;1.80;;;23.70;32.30;;;;;;2264430;61;20406;-50
2022/07/08 10:11:53;0.00;0.00;0.62;0.00;0.00;0.62;6.07;2.20;;;23.70;32.30;;;;;;2263148;61;20363;-49
2022/07/08 10:14:39;0.00;0.00;0.62;0.00;0.00;0.62;5.30;1.93;;;23.70;32.30;;;;;;2264265;61;20906;-52
2022/07/08 10:17:27;0.00;0.00;0.62;0.00;0.00;0.62;5.53;1.60;;;23.80;32.30;;;;;;2264394;61;20392;-50
2022/07/08 10:20:15;0.00;0.00;0.62;0.00;0.00;0.62;4.07;1.90;;;23.80;32.30;;;;;;2263179;61;20364;-50
2022/07/08 10:23:06;0.00;0.00;0.62;0.00;0.00;0.62;5.83;1.97;;;23.80;32.30;;;;;;2264147;61;20368;-50
2022/07/08 10:25:51;0.00;0.00;0.62;0.00;0.00;0.62;3.60;1.90;;;23.80;32.20;;;;;;2263951;61;20946;-51
2022/07/08 10:28:38;0.00;0.00;0.62;0.00;0.00;0.62;5.23;1.90;;;23.80;32.20;;;;;;2263776;61;20360;-50
2022/07/08 10:31:25;0.00;0.00;0.62;0.00;0.00;0.62;6.30;2.13;;;23.80;32.20;;;;;;2264602;61;20821;-50
2022/07/08 10:34:12;0.00;0.00;0.62;0.00;0.00;0.62;4.37;1.57;;;23.80;32.30;;;;;;2263020;61;20435;-55
2022/07/08 10:36:57;0.00;0.00;0.62;0.00;0.00;0.62;4.97;2.13;;;23.80;32.30;;;;;;2264416;61;20364;-50
2022/07/08 10:39:43;0.00;0.00;0.62;0.00;0.00;0.62;7.77;1.70;;;23.80;32.30;;;;;;2264062;61;20406;-51
2022/07/08 10:42:27;0.00;0.00;0.62;0.00;0.00;0.62;5.60;1.70;;;23.80;32.40;;;;;;2263357;61;20372;-50
2022/07/08 10:45:17;0.00;0.00;0.62;0.00;0.00;0.62;4.23;2.00;;;23.80;32.50;;;;;;2264442;61;20455;-54
2022/07/08 10:48:08;0.00;0.00;0.62;0.00;0.00;0.62;5.10;1.80;;;23.80;32.40;;;;;;2260813;61;20402;-50
2022/07/08 10:50:53;0.00;0.00;0.62;0.00;0.00;0.62;3.63;1.90;;;23.80;32.50;;;;;;2261243;61;20395;-55
2022/07/08 10:53:46;0.00;0.00;0.62;0.00;0.00;0.62;4.33;1.50;;;23.90;32.60;;;;;;2264038;61;20391;-51
2022/07/08 10:56:48;0.00;0.00;0.62;0.00;0.00;0.62;4.40;1.60;;;23.90;32.70;;;;;;2263157;61;20499;-55
2022/07/08 10:59:35;0.00;0.00;0.62;0.00;0.00;0.62;6.03;1.90;;;23.90;32.70;;;;;;2261500;61;20379;-51